Time;durP1;ratioP1;P1;durP2;ratioP2;P2;SDS_P1;SDS_P2;PMS_P1;PMS_P2;Temp;Humidity;BMP_temperature;BMP_pressure;BME280_temperature;BME280_humidity;BME280_pressure;Samples;Min_cycle;Max_cycle;Signal;HPM_P1;HPM_P2
2023/10/12 00:01:26;;;;;;;2.17;0.77;;;;;;;;;;5090099;28;20039;-69
2023/10/12 00:03:58;;;;;;;1.65;0.60;;;;;;;;;;5088552;28;20114;-69
2023/10/12 00:06:30;;;;;;;2.92;0.65;;;;;;;;;;5087639;28;20484;-69
2023/10/12 00:08:56;;;;;;;1.98;0.60;;;;;;;;;;5082384;28;20482;-69
2023/10/12 00:11:22;;;;;;;2.60;0.73;;;;;;;;;;5084442;28;20166;-69
2023/10/12 00:13:52;;;;;;;2.67;0.70;;;;;;;;;;5092817;28;20067;-69
2023/10/12 00:16:19;;;;;;;3.70;0.93;;;;;;;;;;5083491;28;20498;-69
2023/10/12 00:18:48;;;;;;;2.88;0.90;;;;;;;;;;5086962;28;20039;-69
2023/10/12 00:21:15;;;;;;;3.03;0.90;;;;;;;;;;5073818;28;20165;-69
2023/10/12 00:23:44;;;;;;;3.33;0.93;;;;;;;;;;5089416;28;20036;-69
2023/10/12 00:26:09;;;;;;;3.20;1.10;;;;;;;;;;5084946;28;20044;-69
2023/10/12 00:28:39;;;;;;;3.25;1.08;;;;;;;;;;5088007;28;20066;-69
2023/10/12 00:31:07;;;;;;;3.45;1.00;;;;;;;;;;5088141;28;20044;-69
2023/10/12 00:33:33;;;;;;;5.35;1.33;;;;;;;;;;5091814;28;20111;-69
2023/10/12 00:36:19;;;;;;;6.70;1.15;;;;;;;;;;5089424;28;20109;-69
2023/10/12 00:38:45;;;;;;;4.40;1.20;;;;;;;;;;5085537;28;20292;-69
2023/10/12 00:41:14;;;;;;;5.28;1.20;;;;;;;;;;5088753;28;20074;-69
2023/10/12 00:44:08;;;;;;;5.25;1.00;;;;;;;;;;5085956;28;20075;-69
2023/10/12 00:46:40;;;;;;;4.88;1.52;;;;;;;;;;5079716;28;20501;-69
2023/10/12 00:49:16;;;;;;;6.43;1.30;;;;;;;;;;5083960;28;20048;-69
2023/10/12 00:51:49;;;;;;;4.43;1.30;;;;;;;;;;5073016;28;20463;-69
2023/10/12 00:54:25;;;;;;;4.63;1.15;;;;;;;;;;5089078;28;20481;-69
2023/10/12 00:56:52;;;;;;;5.10;1.42;;;;;;;;;;5090285;28;20420;-69
2023/10/12 00:59:21;;;;;;;3.72;1.15;;;;;;;;;;5092461;28;20549;-69
2023/10/12 01:01:49;;;;;;;8.65;1.58;;;;;;;;;;5093023;28;20040;-69
2023/10/12 01:04:16;;;;;;;3.65;1.00;;;;;;;;;;5090162;28;20076;-69
2023/10/12 01:06:44;;;;;;;4.07;1.08;;;;;;;;;;5089065;28;20036;-69
2023/10/12 01:09:20;;;;;;;4.45;1.05;;;;;;;;;;5085946;28;20047;-69
2023/10/12 01:11:58;;;;;;;7.40;1.30;;;;;;;;;;5092666;28;20457;-69
2023/10/12 01:14:26;;;;;;;4.90;1.20;;;;;;;;;;5081261;28;20039;-69
2023/10/12 01:16:59;;;;;;;5.78;1.20;;;;;;;;;;5084351;28;20748;-69
2023/10/12 01:19:31;;;;;;;2.25;1.05;;;;;;;;;;5080095;28;20048;-69
2023/10/12 01:22:12;;;;;;;5.63;1.55;;;;;;;;;;5089412;28;20180;-69
2023/10/12 01:24:43;;;;;;;6.60;1.52;;;;;;;;;;5092277;28;20115;-69
2023/10/12 01:27:12;;;;;;;5.60;1.73;;;;;;;;;;5089590;28;20047;-69
2023/10/12 01:29:38;;;;;;;7.25;1.40;;;;;;;;;;5083574;28;20389;-69
2023/10/12 01:34:36;;;;;;;4.85;1.00;;;;;;;;;;5085344;28;20044;-69
2023/10/12 01:37:21;;;;;;;6.82;1.52;;;;;;;;;;5089729;28;20040;-69
2023/10/12 01:39:57;;;;;;;8.10;1.27;;;;;;;;;;5088590;28;20035;-69
2023/10/12 01:45:17;;;;;;;4.80;1.27;;;;;;;;;;5090305;28;20078;-69
2023/10/12 01:47:44;;;;;;;6.72;1.20;;;;;;;;;;5090181;28;20036;-69
2023/10/12 01:50:11;;;;;;;4.40;1.20;;;;;;;;;;5090984;28;20067;-70
2023/10/12 01:52:37;;;;;;;6.50;1.20;;;;;;;;;;5085797;28;20078;-70
2023/10/12 01:55:15;;;;;;;9.82;1.60;;;;;;;;;;5081850;28;20085;-70
2023/10/12 01:57:47;;;;;;;4.07;1.10;;;;;;;;;;5087338;28;20074;-70
2023/10/12 02:00:15;;;;;;;8.55;1.73;;;;;;;;;;5088447;28;20048;-70
2023/10/12 02:02:49;;;;;;;6.38;1.20;;;;;;;;;;5082074;28;20041;-70
2023/10/12 02:05:24;;;;;;;5.78;1.48;;;;;;;;;;5087012;28;20524;-70
2023/10/12 02:07:52;;;;;;;6.68;1.50;;;;;;;;;;5086139;28;20035;-69
2023/10/12 02:10:18;;;;;;;5.80;1.40;;;;;;;;;;5087070;28;20043;-70
2023/10/12 02:12:46;;;;;;;6.03;1.52;;;;;;;;;;5087291;28;20047;-70
2023/10/12 02:15:15;;;;;;;5.88;1.50;;;;;;;;;;5090866;28;20065;-70
2023/10/12 02:17:49;;;;;;;4.50;1.10;;;;;;;;;;5086948;28;20085;-70
2023/10/12 02:20:15;;;;;;;5.22;1.50;;;;;;;;;;5087336;28;20087;-70
2023/10/12 02:22:41;;;;;;;9.25;1.60;;;;;;;;;;5091356;28;20067;-70
2023/10/12 02:27:49;;;;;;;5.68;1.58;;;;;;;;;;5085979;28;20047;-70
2023/10/12 02:30:18;;;;;;;6.55;1.67;;;;;;;;;;5087337;28;20044;-70
2023/10/12 02:32:46;;;;;;;6.57;1.40;;;;;;;;;;5090149;28;20047;-70
2023/10/12 02:35:15;;;;;;;5.95;1.35;;;;;;;;;;5091479;28;20036;-70
2023/10/12 02:37:42;;;;;;;8.55;1.60;;;;;;;;;;5086146;28;20402;-70
2023/10/12 02:40:09;;;;;;;8.45;1.67;;;;;;;;;;5086771;28;20040;-70
2023/10/12 02:42:38;;;;;;;6.60;1.33;;;;;;;;;;5091328;28;20486;-70
2023/10/12 02:45:09;;;;;;;4.55;1.10;;;;;;;;;;5084876;28;20482;-70
2023/10/12 02:47:40;;;;;;;4.45;1.27;;;;;;;;;;5090425;28;20035;-70
2023/10/12 02:52:34;;;;;;;7.57;1.92;;;;;;;;;;5086509;28;20045;-70
2023/10/12 02:55:08;;;;;;;5.60;1.50;;;;;;;;;;5082608;28;20040;-70
2023/10/12 02:57:37;;;;;;;5.38;1.40;;;;;;;;;;5091881;28;20093;-70
2023/10/12 03:00:12;;;;;;;10.63;1.67;;;;;;;;;;5086798;28;20039;-70
2023/10/12 03:02:44;;;;;;;4.60;1.30;;;;;;;;;;5091836;28;20044;-70
2023/10/12 03:05:10;;;;;;;4.68;1.42;;;;;;;;;;5094614;28;20201;-70
2023/10/12 03:07:39;;;;;;;7.22;1.70;;;;;;;;;;5090490;28;20040;-70
2023/10/12 03:10:25;;;;;;;9.52;2.10;;;;;;;;;;5089386;28;20078;-70
2023/10/12 03:12:55;;;;;;;8.05;1.92;;;;;;;;;;5087536;28;20044;-70
2023/10/12 03:15:31;;;;;;;7.68;1.88;;;;;;;;;;5094982;28;20077;-70
2023/10/12 03:20:39;;;;;;;7.03;1.75;;;;;;;;;;5092962;28;20126;-70
2023/10/12 03:23:16;;;;;;;5.43;1.73;;;;;;;;;;5076229;28;20048;-71
2023/10/12 03:25:46;;;;;;;6.47;1.60;;;;;;;;;;5094910;28;20070;-71
2023/10/12 03:28:29;;;;;;;6.10;2.33;;;;;;;;;;5093528;28;20123;-71
2023/10/12 03:30:57;;;;;;;8.55;2.00;;;;;;;;;;5089882;28;20036;-71
2023/10/12 03:33:29;;;;;;;5.30;2.00;;;;;;;;;;5093322;28;20044;-71
2023/10/12 03:36:12;;;;;;;8.52;1.92;;;;;;;;;;5086681;28;20123;-71
2023/10/12 03:38:38;;;;;;;8.88;1.88;;;;;;;;;;5090324;28;20040;-71
2023/10/12 03:43:54;;;;;;;8.98;2.00;;;;;;;;;;5094064;28;20131;-72
2023/10/12 03:46:32;;;;;;;;;;;;;;;;;;5072988;28;20386;-72
2023/10/12 03:51:39;;;;;;;5.85;1.90;;;;;;;;;;5090888;28;20102;-71
2023/10/12 03:54:12;;;;;;;7.45;2.10;;;;;;;;;;5093395;28;20093;-72
2023/10/12 03:56:40;;;;;;;5.65;2.15;;;;;;;;;;5084593;28;20072;-72
2023/10/12 03:59:07;;;;;;;7.25;2.15;;;;;;;;;;5085952;28;20036;-72
2023/10/12 04:01:35;;;;;;;6.72;1.90;;;;;;;;;;5089188;28;20032;-72
2023/10/12 04:07:16;;;;;;;6.88;2.03;;;;;;;;;;5093032;28;20127;-72
2023/10/12 04:09:42;;;;;;;3.90;1.85;;;;;;;;;;5085496;28;20638;-71
2023/10/12 04:14:46;;;;;;;6.78;2.33;;;;;;;;;;5093294;28;20072;-71
2023/10/12 04:22:26;;;;;;;8.52;2.42;;;;;;;;;;5084107;28;20063;-72
2023/10/12 04:24:56;;;;;;;7.65;2.20;;;;;;;;;;5090162;28;20118;-72
2023/10/12 04:29:58;;;;;;;7.43;2.20;;;;;;;;;;5084343;28;20514;-71
2023/10/12 04:32:51;;;;;;;8.60;2.10;;;;;;;;;;5093347;28;20044;-71
2023/10/12 04:35:27;;;;;;;7.07;2.20;;;;;;;;;;5089783;28;20031;-72
2023/10/12 04:37:55;;;;;;;7.72;2.72;;;;;;;;;;5084951;28;20067;-72
2023/10/12 04:40:37;;;;;;;8.07;2.30;;;;;;;;;;5081257;28;20127;-72
2023/10/12 04:43:06;;;;;;;8.98;2.63;;;;;;;;;;5084976;28;21735;-72
2023/10/12 04:46:05;;;;;;;8.45;2.30;;;;;;;;;;5086517;28;20440;-71
2023/10/12 04:48:21;;;;;;;8.73;2.08;;;;;;;;;;5088694;28;20044;-72
2023/10/12 04:50:58;;;;;;;7.88;2.58;;;;;;;;;;5092744;28;20050;-71
2023/10/12 04:53:35;;;;;;;7.35;2.20;;;;;;;;;;5068496;28;20123;-72
2023/10/12 04:56:09;;;;;;;7.05;2.00;;;;;;;;;;5091917;28;20062;-72
2023/10/12 04:58:36;;;;;;;5.70;1.92;;;;;;;;;;5091712;28;20032;-72
2023/10/12 05:01:20;;;;;;;8.60;2.00;;;;;;;;;;5092869;28;20051;-72
2023/10/12 05:04:07;;;;;;;6.75;2.15;;;;;;;;;;5073894;28;20094;-71
2023/10/12 05:06:35;;;;;;;8.15;1.75;;;;;;;;;;5088196;28;20052;-72
2023/10/12 05:09:10;;;;;;;8.07;2.13;;;;;;;;;;5091823;28;20139;-72
2023/10/12 05:11:36;;;;;;;6.18;1.88;;;;;;;;;;5092438;28;20094;-72
2023/10/12 05:14:11;;;;;;;8.80;2.63;;;;;;;;;;5073131;28;20634;-72
2023/10/12 05:16:42;;;;;;;6.00;2.22;;;;;;;;;;5091390;28;20119;-72
2023/10/12 05:19:08;;;;;;;6.65;2.05;;;;;;;;;;5092180;28;20051;-72
2023/10/12 05:21:34;;;;;;;8.52;2.40;;;;;;;;;;5092299;28;20042;-72
2023/10/12 05:24:00;;;;;;;7.80;2.10;;;;;;;;;;5074608;28;20123;-72
2023/10/12 05:26:26;;;;;;;8.18;2.38;;;;;;;;;;5091049;28;20036;-72
2023/10/12 05:29:08;;;;;;;6.78;2.08;;;;;;;;;;5092403;28;20043;-72
2023/10/12 05:31:39;;;;;;;9.05;2.55;;;;;;;;;;5071729;28;20485;-72
2023/10/12 05:34:32;;;;;;;7.05;2.28;;;;;;;;;;5070562;28;20044;-72
2023/10/12 05:37:00;;;;;;;7.85;1.92;;;;;;;;;;5087224;28;20117;-72
2023/10/12 05:39:27;;;;;;;5.90;1.88;;;;;;;;;;5088157;28;20044;-72
2023/10/12 05:41:57;;;;;;;7.75;2.03;;;;;;;;;;5090988;28;20032;-72
2023/10/12 05:44:26;;;;;;;4.93;1.70;;;;;;;;;;5091920;28;20379;-72
2023/10/12 05:46:58;;;;;;;7.00;2.22;;;;;;;;;;5085967;28;20036;-72
2023/10/12 05:49:25;;;;;;;10.85;2.13;;;;;;;;;;5091225;28;20046;-72
2023/10/12 05:51:51;;;;;;;4.95;1.80;;;;;;;;;;5091126;28;20044;-72
2023/10/12 05:54:20;;;;;;;8.80;2.30;;;;;;;;;;5068685;28;20485;-72
2023/10/12 05:56:49;;;;;;;5.50;2.00;;;;;;;;;;5092164;28;20039;-72
2023/10/12 05:59:15;;;;;;;8.95;2.38;;;;;;;;;;5086977;28;20040;-72
2023/10/12 06:01:48;;;;;;;5.60;1.90;;;;;;;;;;5091885;28;20028;-72
2023/10/12 06:04:20;;;;;;;8.38;2.20;;;;;;;;;;5089887;28;20044;-72
2023/10/12 06:06:48;;;;;;;5.07;1.90;;;;;;;;;;5082977;28;20032;-72
2023/10/12 06:09:35;;;;;;;4.43;1.95;;;;;;;;;;5069524;28;20039;-71
2023/10/12 06:12:06;;;;;;;5.82;1.80;;;;;;;;;;5084722;28;20131;-71
2023/10/12 06:14:32;;;;;;;6.78;1.55;;;;;;;;;;5085949;28;20043;-72
2023/10/12 06:17:02;;;;;;;3.78;1.60;;;;;;;;;;5071146;28;20040;-71
2023/10/12 06:19:32;;;;;;;6.07;1.90;;;;;;;;;;5088453;28;20521;-71
2023/10/12 06:22:13;;;;;;;6.28;1.80;;;;;;;;;;5091174;28;20310;-71
2023/10/12 06:24:41;;;;;;;8.30;1.63;;;;;;;;;;5087637;28;20054;-71
2023/10/12 06:29:46;;;;;;;7.53;1.63;;;;;;;;;;5088124;28;20040;-70
2023/10/12 06:32:31;;;;;;;8.32;2.20;;;;;;;;;;5093111;28;20083;-71
2023/10/12 06:45:46;;;;;;;5.75;1.95;;;;;;;;;;5093084;28;20040;-71
2023/10/12 06:51:02;;;;;;;9.15;2.33;;;;;;;;;;5087245;28;20044;-71
2023/10/12 06:53:34;;;;;;;6.13;2.90;;;;;;;;;;5095149;28;20042;-71
2023/10/12 06:56:15;;;;;;;9.02;2.60;;;;;;;;;;5092217;28;20037;-71
2023/10/12 06:59:07;;;;;;;8.10;2.45;;;;;;;;;;5074306;28;20040;-71
2023/10/12 07:01:51;;;;;;;10.60;3.00;;;;;;;;;;5088492;28;20370;-72
2023/10/12 07:04:21;;;;;;;7.72;2.58;;;;;;;;;;5077961;28;20036;-71
2023/10/12 07:07:10;;;;;;;8.48;2.60;;;;;;;;;;5075413;28;20032;-71
2023/10/12 07:09:39;;;;;;;9.20;3.67;;;;;;;;;;5089573;28;20040;-72
2023/10/12 07:12:24;;;;;;;10.80;3.28;;;;;;;;;;5090403;28;20400;-72
2023/10/12 07:14:55;;;;;;;5.57;2.67;;;;;;;;;;5092137;28;20111;-71
2023/10/12 07:17:34;;;;;;;10.40;2.78;;;;;;;;;;5093636;28;20032;-72
2023/10/12 07:20:00;;;;;;;7.22;2.70;;;;;;;;;;5094786;28;20137;-71
2023/10/12 07:22:26;;;;;;;5.97;2.80;;;;;;;;;;5092671;28;20161;-71
2023/10/12 07:24:56;;;;;;;7.65;2.92;;;;;;;;;;5085570;28;20039;-71
2023/10/12 07:27:24;;;;;;;9.05;3.38;;;;;;;;;;5087067;28;20089;-72
2023/10/12 07:30:15;;;;;;;9.43;3.20;;;;;;;;;;5092290;28;20047;-71
2023/10/12 07:32:56;;;;;;;7.20;2.92;;;;;;;;;;5072754;28;20130;-71
2023/10/12 07:35:42;;;;;;;9.15;3.50;;;;;;;;;;5093133;28;20623;-71
2023/10/12 07:38:34;;;;;;;11.43;3.65;;;;;;;;;;5090033;28;20048;-72
2023/10/12 07:41:00;;;;;;;8.33;3.37;;;;;;;;;;5088662;28;20101;-71
2023/10/12 07:43:31;;;;;;;9.85;4.13;;;;;;;;;;5089760;28;20787;-71
2023/10/12 07:46:09;;;;;;;11.43;3.97;;;;;;;;;;5088226;28;20105;-71
2023/10/12 07:48:45;;;;;;;9.00;3.60;;;;;;;;;;5093144;28;20036;-71
2023/10/12 07:51:30;;;;;;;8.50;3.97;;;;;;;;;;5090699;28;20528;-71
2023/10/12 07:54:00;;;;;;;7.45;3.70;;;;;;;;;;5088432;28;20401;-71
2023/10/12 07:56:33;;;;;;;11.27;3.80;;;;;;;;;;5090990;28;20516;-71
2023/10/12 07:58:59;;;;;;;12.15;3.85;;;;;;;;;;5084181;28;20082;-72
2023/10/12 08:01:39;;;;;;;9.35;4.18;;;;;;;;;;5093256;28;20485;-71
2023/10/12 08:04:09;;;;;;;7.53;3.00;;;;;;;;;;5092277;28;20040;-71
2023/10/12 08:09:21;;;;;;;7.82;3.38;;;;;;;;;;5088617;28;20130;-72
2023/10/12 08:11:47;;;;;;;8.88;2.78;;;;;;;;;;5089917;28;20044;-71
2023/10/12 08:14:39;;;;;;;10.68;2.95;;;;;;;;;;5091604;28;20059;-72
2023/10/12 08:22:36;;;;;;;11.05;3.30;;;;;;;;;;5092267;28;20047;-72
2023/10/12 08:25:04;;;;;;;11.95;2.67;;;;;;;;;;5088745;28;20473;-73
2023/10/12 08:27:52;;;;;;;7.07;2.15;;;;;;;;;;5091604;28;20482;-72
2023/10/12 08:30:24;;;;;;;11.95;2.58;;;;;;;;;;5072066;28;20044;-72
2023/10/12 08:32:58;;;;;;;8.38;2.30;;;;;;;;;;5092507;28;20075;-72
2023/10/12 08:35:36;;;;;;;8.40;2.03;;;;;;;;;;5092331;28;21458;-72
2023/10/12 08:38:33;;;;;;;7.38;1.90;;;;;;;;;;5088584;28;20048;-72
2023/10/12 08:41:20;;;;;;;7.60;1.80;;;;;;;;;;5091045;28;20501;-72
2023/10/12 08:43:48;;;;;;;14.70;2.20;;;;;;;;;;5073982;28;20085;-72
2023/10/12 08:47:09;;;;;;;8.73;2.25;;;;;;;;;;5090580;28;20607;-72
2023/10/12 08:49:34;;;;;;;8.85;1.85;;;;;;;;;;5073204;28;20040;-72
2023/10/12 08:52:04;;;;;;;8.30;1.77;;;;;;;;;;5088872;28;20043;-72
2023/10/12 08:54:32;;;;;;;11.02;2.38;;;;;;;;;;5090857;28;20529;-72
2023/10/12 08:56:58;;;;;;;6.22;2.00;;;;;;;;;;5090380;28;20075;-72
2023/10/12 08:59:24;;;;;;;7.63;1.77;;;;;;;;;;5091920;28;20496;-72
2023/10/12 09:01:51;;;;;;;7.40;1.90;;;;;;;;;;5091774;28;20040;-73
2023/10/12 09:04:22;;;;;;;6.93;1.50;;;;;;;;;;5090998;28;20473;-72
2023/10/12 09:09:48;;;;;;;11.80;1.92;;;;;;;;;;5085576;28;20134;-72
2023/10/12 09:12:12;;;;;;;11.90;2.25;;;;;;;;;;5088291;28;20052;-72
2023/10/12 09:14:43;;;;;;;10.38;2.30;;;;;;;;;;5091624;28;20039;-72
2023/10/12 09:17:09;;;;;;;;;;;;;;;;;;5091200;28;20040;-72
2023/10/12 09:19:35;;;;;;;8.27;1.73;;;;;;;;;;5131766;22;19927;-71
2023/10/12 09:22:02;;;;;;;6.75;1.73;;;;;;;;;;5075229;28;20398;-72
2023/10/12 09:24:35;;;;;;;8.45;1.38;;;;;;;;;;5090968;28;20044;-72
2023/10/12 09:27:11;;;;;;;7.55;1.38;;;;;;;;;;5070960;28;20538;-71
2023/10/12 09:29:57;;;;;;;14.13;1.83;;;;;;;;;;5087172;28;20036;-72
2023/10/12 09:32:26;;;;;;;10.13;1.65;;;;;;;;;;5069002;28;20044;-72
2023/10/12 09:37:51;;;;;;;11.63;2.17;;;;;;;;;;5090477;28;20081;-72
2023/10/12 09:40:29;;;;;;;7.47;2.17;;;;;;;;;;5072524;28;20123;-72
2023/10/12 09:43:06;;;;;;;6.65;1.77;;;;;;;;;;5088594;28;20036;-72
2023/10/12 09:45:40;;;;;;;8.90;1.75;;;;;;;;;;5090618;28;20055;-72
2023/10/12 09:48:11;;;;;;;10.38;1.52;;;;;;;;;;5089905;28;20044;-72
2023/10/12 09:50:38;;;;;;;9.73;1.42;;;;;;;;;;5074068;28;20093;-72
2023/10/12 09:53:12;;;;;;;9.70;2.25;;;;;;;;;;5085789;28;20123;-72
2023/10/12 09:55:40;;;;;;;9.13;1.58;;;;;;;;;;5089203;28;20036;-72
2023/10/12 09:58:22;;;;;;;6.75;2.05;;;;;;;;;;5086965;28;20497;-72
2023/10/12 10:01:15;;;;;;;7.78;1.30;;;;;;;;;;5091522;28;20509;-72
2023/10/12 10:03:47;;;;;;;4.97;1.05;;;;;;;;;;5072365;28;20036;-72
2023/10/12 10:06:28;;;;;;;9.20;1.92;;;;;;;;;;5084785;28;20489;-71
2023/10/12 10:09:19;;;;;;;8.32;1.40;;;;;;;;;;5091034;28;20050;-72
2023/10/12 10:11:46;;;;;;;11.00;1.52;;;;;;;;;;5090908;28;20508;-72
2023/10/12 10:14:20;;;;;;;6.75;1.52;;;;;;;;;;5092174;28;20051;-72
2023/10/12 10:16:46;;;;;;;9.70;1.60;;;;;;;;;;5087113;28;20394;-72
2023/10/12 10:19:16;;;;;;;7.88;1.40;;;;;;;;;;5090542;28;20397;-72
2023/10/12 10:21:50;;;;;;;8.07;1.50;;;;;;;;;;5089566;28;20145;-72
2023/10/12 10:24:23;;;;;;;7.43;1.10;;;;;;;;;;5091811;28;20547;-72
2023/10/12 10:26:57;;;;;;;7.78;1.52;;;;;;;;;;5091352;28;20101;-73
2023/10/12 10:29:39;;;;;;;7.55;1.40;;;;;;;;;;5092267;28;20050;-72
2023/10/12 10:32:07;;;;;;;9.45;2.00;;;;;;;;;;5087749;28;20051;-72
2023/10/12 10:34:34;;;;;;;6.47;1.20;;;;;;;;;;5090901;28;20397;-72
2023/10/12 10:37:04;;;;;;;8.70;1.30;;;;;;;;;;5091578;28;20066;-73
2023/10/12 10:39:30;;;;;;;4.43;1.25;;;;;;;;;;5091794;28;20043;-72
2023/10/12 10:42:00;;;;;;;5.88;1.30;;;;;;;;;;5083837;28;20062;-72
2023/10/12 10:44:27;;;;;;;5.20;1.02;;;;;;;;;;5091747;28;20423;-72
2023/10/12 10:46:57;;;;;;;5.80;1.42;;;;;;;;;;5073495;28;20440;-72
2023/10/12 10:49:30;;;;;;;5.93;1.52;;;;;;;;;;5091893;28;20036;-72
2023/10/12 10:54:39;;;;;;;11.25;1.65;;;;;;;;;;5089505;28;20074;-72
2023/10/12 10:57:15;;;;;;;6.50;1.73;;;;;;;;;;5091687;28;20040;-72
2023/10/12 10:59:45;;;;;;;8.23;1.38;;;;;;;;;;5091201;28;20072;-72
2023/10/12 11:02:11;;;;;;;6.63;1.30;;;;;;;;;;5085667;28;20083;-73
2023/10/12 11:07:17;;;;;;;11.55;1.90;;;;;;;;;;5091520;28;20040;-73
2023/10/12 11:12:23;;;;;;;10.23;2.10;;;;;;;;;;5088183;28;20051;-72
2023/10/12 11:14:58;;;;;;;8.50;1.50;;;;;;;;;;5091504;28;20390;-72
2023/10/12 11:17:24;;;;;;;7.47;1.75;;;;;;;;;;5090399;28;20524;-72
2023/10/12 11:19:50;;;;;;;7.75;1.50;;;;;;;;;;5076229;28;20044;-72
2023/10/12 11:22:17;;;;;;;8.57;1.85;;;;;;;;;;5090410;28;20454;-72
2023/10/12 11:24:50;;;;;;;10.85;1.65;;;;;;;;;;5090363;28;20405;-73
2023/10/12 11:27:32;;;;;;;7.97;1.63;;;;;;;;;;5093703;28;20036;-73
2023/10/12 11:30:06;;;;;;;10.50;1.80;;;;;;;;;;5088718;28;20048;-72
2023/10/12 11:32:33;;;;;;;10.90;1.92;;;;;;;;;;5091472;28;20056;-72
2023/10/12 11:35:06;;;;;;;7.50;1.65;;;;;;;;;;5095071;28;20048;-72
2023/10/12 11:37:38;;;;;;;7.20;1.77;;;;;;;;;;5094363;28;20096;-72
2023/10/12 11:40:07;;;;;;;8.80;1.60;;;;;;;;;;5093133;28;20093;-73
2023/10/12 11:42:33;;;;;;;10.63;1.95;;;;;;;;;;5092778;28;20614;-72
2023/10/12 11:45:09;;;;;;;7.70;1.55;;;;;;;;;;5076633;28;20125;-72
2023/10/12 11:47:38;;;;;;;7.20;1.42;;;;;;;;;;5094484;28;20044;-73
2023/10/12 11:50:09;;;;;;;5.90;1.23;;;;;;;;;;5093541;28;20040;-73
2023/10/12 11:52:37;;;;;;;;;;;;;;;;;;5092070;28;20493;-72
2023/10/12 11:55:07;;;;;;;8.88;1.60;;;;;;;;;;5093966;28;19916;-72
2023/10/12 11:57:35;;;;;;;7.88;1.30;;;;;;;;;;5093762;28;20036;-73
2023/10/12 12:00:20;;;;;;;6.35;1.10;;;;;;;;;;5094617;28;20042;-72
2023/10/12 12:02:46;;;;;;;11.38;1.42;;;;;;;;;;5092919;28;20540;-72
2023/10/12 12:05:12;;;;;;;5.40;1.30;;;;;;;;;;5094556;28;20040;-72
2023/10/12 12:07:38;;;;;;;8.70;1.90;;;;;;;;;;5093364;28;20543;-73
2023/10/12 12:10:07;;;;;;;8.52;1.35;;;;;;;;;;5094593;28;20082;-72
2023/10/12 12:12:38;;;;;;;10.25;1.98;;;;;;;;;;5089680;28;20055;-72
2023/10/12 12:15:04;;;;;;;;;;;;;;;;;;5094519;28;20124;-72
2023/10/12 12:17:30;;;;;;;10.20;1.48;;;;;;;;;;5093319;28;19959;-72
2023/10/12 12:19:56;;;;;;;6.88;1.40;;;;;;;;;;5094011;28;20044;-72
2023/10/12 12:22:23;;;;;;;7.93;1.40;;;;;;;;;;5093175;28;20064;-72
2023/10/12 12:24:49;;;;;;;6.60;1.30;;;;;;;;;;5093923;28;20063;-72
2023/10/12 12:30:06;;;;;;;10.38;1.73;;;;;;;;;;5080441;28;20075;-72
2023/10/12 12:32:33;;;;;;;7.68;1.40;;;;;;;;;;5091277;28;20420;-72
2023/10/12 12:35:02;;;;;;;7.25;1.58;;;;;;;;;;5093811;28;20073;-72
2023/10/12 12:37:29;;;;;;;10.50;1.30;;;;;;;;;;5075774;28;20044;-73
2023/10/12 12:40:27;;;;;;;10.05;1.63;;;;;;;;;;5093233;28;20044;-72
2023/10/12 12:42:54;;;;;;;16.50;2.00;;;;;;;;;;5089882;28;20053;-72
2023/10/12 12:45:20;;;;;;;9.32;1.38;;;;;;;;;;5090289;28;20047;-72
2023/10/12 12:47:46;;;;;;;6.88;1.80;;;;;;;;;;5092918;28;20410;-72
2023/10/12 12:50:12;;;;;;;8.23;2.08;;;;;;;;;;5093426;28;20051;-72
2023/10/12 12:52:38;;;;;;;8.93;1.90;;;;;;;;;;5093461;28;20036;-72
2023/10/12 12:55:10;;;;;;;10.25;1.90;;;;;;;;;;5093130;28;20492;-73
2023/10/12 12:57:39;;;;;;;13.60;2.22;;;;;;;;;;5092905;28;20091;-72
2023/10/12 13:00:08;;;;;;;10.32;2.83;;;;;;;;;;5092230;28;20040;-72
2023/10/12 13:02:36;;;;;;;9.70;2.20;;;;;;;;;;5086125;28;20124;-72
2023/10/12 13:05:04;;;;;;;10.10;2.00;;;;;;;;;;5074598;28;20478;-72
2023/10/12 13:07:30;;;;;;;10.00;2.08;;;;;;;;;;5093061;28;20052;-72
2023/10/12 13:09:58;;;;;;;8.90;2.00;;;;;;;;;;5092998;28;20093;-72
2023/10/12 13:12:24;;;;;;;9.82;2.20;;;;;;;;;;5092193;28;20048;-72
2023/10/12 13:14:50;;;;;;;9.52;2.08;;;;;;;;;;5091263;28;20137;-72
2023/10/12 13:17:18;;;;;;;13.38;1.90;;;;;;;;;;5087761;28;20182;-72
2023/10/12 13:19:44;;;;;;;11.50;2.15;;;;;;;;;;5092602;28;20476;-72
2023/10/12 13:22:13;;;;;;;8.88;1.83;;;;;;;;;;5092734;28;20051;-72
2023/10/12 13:24:39;;;;;;;8.85;2.17;;;;;;;;;;5090320;28;20461;-73
2023/10/12 13:27:08;;;;;;;10.38;1.90;;;;;;;;;;5074212;28;20124;-72
2023/10/12 13:29:34;;;;;;;8.77;1.50;;;;;;;;;;5092142;28;20120;-73
2023/10/12 13:32:00;;;;;;;9.68;1.85;;;;;;;;;;5090834;28;20047;-72
2023/10/12 13:34:26;;;;;;;5.32;2.17;;;;;;;;;;5090414;28;20081;-72
2023/10/12 13:36:52;;;;;;;8.52;2.22;;;;;;;;;;5092667;28;20092;-72
2023/10/12 13:39:18;;;;;;;14.13;1.77;;;;;;;;;;5092219;28;20036;-72
2023/10/12 13:41:44;;;;;;;6.93;1.67;;;;;;;;;;5092227;28;20036;-72
2023/10/12 13:44:13;;;;;;;10.63;2.55;;;;;;;;;;5073852;28;20478;-72
2023/10/12 13:46:39;;;;;;;11.32;1.80;;;;;;;;;;5090720;28;20040;-73
2023/10/12 13:49:11;;;;;;;8.30;2.22;;;;;;;;;;5092023;28;20051;-72
2023/10/12 13:51:37;;;;;;;11.75;2.38;;;;;;;;;;5092700;28;20493;-72
2023/10/12 13:54:06;;;;;;;7.63;2.10;;;;;;;;;;5073313;28;20123;-72
2023/10/12 13:56:34;;;;;;;7.53;2.05;;;;;;;;;;5091973;28;20109;-73
2023/10/12 13:59:00;;;;;;;8.70;1.80;;;;;;;;;;5092070;28;20043;-72
2023/10/12 14:01:32;;;;;;;6.45;1.67;;;;;;;;;;5091422;28;20119;-72
2023/10/12 14:04:00;;;;;;;6.75;1.75;;;;;;;;;;5084427;28;20051;-72
2023/10/12 14:06:29;;;;;;;11.35;2.45;;;;;;;;;;5091742;28;20940;-72
2023/10/12 14:08:56;;;;;;;11.50;1.83;;;;;;;;;;5066472;28;20119;-72
2023/10/12 14:11:22;;;;;;;7.35;1.85;;;;;;;;;;5092053;28;20052;-72
2023/10/12 14:13:50;;;;;;;6.32;2.40;;;;;;;;;;5091337;28;20126;-72
2023/10/12 14:16:16;;;;;;;8.52;1.65;;;;;;;;;;5092052;28;20548;-72
2023/10/12 14:18:43;;;;;;;9.13;1.77;;;;;;;;;;5090856;28;20044;-72
2023/10/12 14:21:10;;;;;;;8.00;1.80;;;;;;;;;;5090627;28;20093;-72
2023/10/12 14:23:43;;;;;;;10.68;2.55;;;;;;;;;;5072062;28;20048;-72
2023/10/12 14:26:22;;;;;;;8.82;1.73;;;;;;;;;;5091776;28;20036;-72
2023/10/12 14:28:50;;;;;;;11.07;2.58;;;;;;;;;;5091271;28;20403;-72
2023/10/12 14:31:16;;;;;;;6.32;1.80;;;;;;;;;;5074123;28;20090;-72
2023/10/12 14:33:42;;;;;;;8.43;2.50;;;;;;;;;;5072830;28;20036;-72
2023/10/12 14:36:09;;;;;;;7.28;2.58;;;;;;;;;;5091629;28;20059;-72
2023/10/12 14:38:36;;;;;;;7.30;1.92;;;;;;;;;;5091645;28;20036;-72
2023/10/12 14:41:09;;;;;;;6.43;2.50;;;;;;;;;;5091765;28;20174;-72
2023/10/12 14:43:36;;;;;;;8.05;2.65;;;;;;;;;;5073733;28;20505;-72
2023/10/12 14:46:04;;;;;;;7.55;2.33;;;;;;;;;;5091902;28;20044;-72
2023/10/12 14:48:30;;;;;;;8.43;2.45;;;;;;;;;;5091519;28;20567;-72
2023/10/12 14:51:12;;;;;;;12.38;2.97;;;;;;;;;;5089476;28;20043;-72
2023/10/12 14:53:39;;;;;;;5.38;2.20;;;;;;;;;;5092183;28;20547;-72
2023/10/12 14:56:06;;;;;;;9.25;2.90;;;;;;;;;;5095807;28;20047;-72
2023/10/12 14:58:32;;;;;;;8.93;3.17;;;;;;;;;;5095706;28;20032;-73
2023/10/12 15:00:59;;;;;;;7.72;2.80;;;;;;;;;;5095934;28;20072;-72
2023/10/12 15:03:26;;;;;;;7.78;2.78;;;;;;;;;;5094653;28;20486;-73
2023/10/12 15:05:53;;;;;;;6.15;2.33;;;;;;;;;;5074793;28;20182;-73
2023/10/12 15:08:20;;;;;;;5.80;2.47;;;;;;;;;;5095182;28;20115;-73
2023/10/12 15:10:46;;;;;;;9.75;2.83;;;;;;;;;;5095218;28;20044;-73
2023/10/12 15:13:12;;;;;;;9.30;2.80;;;;;;;;;;5077141;28;20133;-73
2023/10/12 15:15:45;;;;;;;7.45;2.45;;;;;;;;;;5094356;28;20409;-73
2023/10/12 15:18:14;;;;;;;9.88;2.88;;;;;;;;;;5110809;22;20039;-71
2023/10/12 15:20:43;;;;;;;8.13;2.58;;;;;;;;;;5055490;28;20056;-71
2023/10/12 15:23:09;;;;;;;8.88;2.45;;;;;;;;;;5055110;28;20040;-71
2023/10/12 15:25:35;;;;;;;7.60;2.38;;;;;;;;;;5074109;28;20040;-72
2023/10/12 15:28:02;;;;;;;9.80;2.45;;;;;;;;;;5074931;28;20036;-72
2023/10/12 15:30:28;;;;;;;9.52;3.22;;;;;;;;;;5074737;28;20040;-71
2023/10/12 15:32:59;;;;;;;6.85;2.85;;;;;;;;;;5072181;28;20051;-71
2023/10/12 15:35:25;;;;;;;6.55;2.75;;;;;;;;;;5070197;28;20040;-71
2023/10/12 15:37:52;;;;;;;8.65;2.58;;;;;;;;;;5051889;28;20079;-72
2023/10/12 15:40:20;;;;;;;9.75;2.78;;;;;;;;;;5053289;28;20179;-72
2023/10/12 15:42:53;;;;;;;10.20;2.40;;;;;;;;;;5053613;28;20475;-71
2023/10/12 15:45:25;;;;;;;10.52;2.80;;;;;;;;;;5072124;28;20098;-72
2023/10/12 15:47:52;;;;;;;9.85;2.92;;;;;;;;;;5073577;28;20044;-72
2023/10/12 15:50:18;;;;;;;7.97;3.03;;;;;;;;;;5054695;28;20075;-72
2023/10/12 15:52:45;;;;;;;8.95;2.63;;;;;;;;;;5052621;28;20049;-72
2023/10/12 15:55:14;;;;;;;10.55;3.50;;;;;;;;;;5071439;28;20372;-72
2023/10/12 15:57:44;;;;;;;9.73;3.70;;;;;;;;;;5072744;28;20119;-72
2023/10/12 16:00:23;;;;;;;8.85;2.88;;;;;;;;;;5073086;28;20047;-72
2023/10/12 16:03:09;;;;;;;10.18;3.63;;;;;;;;;;5073200;28;20598;-72
2023/10/12 16:05:36;;;;;;;12.52;3.90;;;;;;;;;;5054976;28;20052;-72
2023/10/12 16:08:10;;;;;;;7.28;3.25;;;;;;;;;;5072315;28;20483;-72
2023/10/12 16:10:36;;;;;;;11.93;4.45;;;;;;;;;;5072607;28;20032;-72
2023/10/12 16:13:02;;;;;;;8.05;3.83;;;;;;;;;;5073275;28;20040;-72
2023/10/12 16:15:29;;;;;;;14.40;3.85;;;;;;;;;;5054891;28;20044;-72
2023/10/12 16:17:57;;;;;;;10.13;3.83;;;;;;;;;;5073820;28;20072;-72